sensor_id;sensor_type;location;lat;lon;timestamp;P1;durP1;ratioP1;P2;durP2;ratioP2
19705;SDS011;10003;52.506;4.700;2023-09-30T00:00:43;0.60;;;0.60;;
19705;SDS011;10003;52.506;4.700;2023-09-30T00:03:12;0.40;;;0.40;;
19705;SDS011;10003;52.506;4.700;2023-09-30T00:05:42;0.63;;;0.63;;
19705;SDS011;10003;52.506;4.700;2023-09-30T00:08:10;1.27;;;1.17;;
19705;SDS011;10003;52.506;4.700;2023-09-30T00:10:39;1.83;;;1.20;;
19705;SDS011;10003;52.506;4.700;2023-09-30T00:13:07;3.57;;;2.37;;
19705;SDS011;10003;52.506;4.700;2023-09-30T00:15:36;0.40;;;0.40;;
19705;SDS011;10003;52.506;4.700;2023-09-30T00:18:04;6.27;;;2.13;;
19705;SDS011;10003;52.506;4.700;2023-09-30T00:20:33;2.40;;;1.67;;
19705;SDS011;10003;52.506;4.700;2023-09-30T00:23:03;0.43;;;0.43;;
19705;SDS011;10003;52.506;4.700;2023-09-30T00:25:32;7.77;;;2.53;;
19705;SDS011;10003;52.506;4.700;2023-09-30T00:28:01;4.33;;;1.77;;
19705;SDS011;10003;52.506;4.700;2023-09-30T00:30:29;11.73;;;2.77;;
19705;SDS011;10003;52.506;4.700;2023-09-30T00:32:58;6.13;;;1.50;;
19705;SDS011;10003;52.506;4.700;2023-09-30T00:35:27;3.07;;;2.33;;
19705;SDS011;10003;52.506;4.700;2023-09-30T00:37:55;0.40;;;0.40;;
19705;SDS011;10003;52.506;4.700;2023-09-30T00:40:25;0.50;;;0.50;;
19705;SDS011;10003;52.506;4.700;2023-09-30T00:42:54;0.40;;;0.40;;
19705;SDS011;10003;52.506;4.700;2023-09-30T00:45:22;0.40;;;0.40;;
19705;SDS011;10003;52.506;4.700;2023-09-30T00:47:51;0.50;;;0.50;;
19705;SDS011;10003;52.506;4.700;2023-09-30T00:50:19;0.60;;;0.60;;
19705;SDS011;10003;52.506;4.700;2023-09-30T00:52:49;0.40;;;0.40;;
19705;SDS011;10003;52.506;4.700;2023-09-30T00:55:18;0.40;;;0.40;;
19705;SDS011;10003;52.506;4.700;2023-09-30T00:57:49;0.40;;;0.40;;
19705;SDS011;10003;52.506;4.700;2023-09-30T01:00:18;0.40;;;0.40;;
19705;SDS011;10003;52.506;4.700;2023-09-30T01:02:47;1.07;;;1.07;;
19705;SDS011;10003;52.506;4.700;2023-09-30T01:05:16;1.67;;;1.67;;
19705;SDS011;10003;52.506;4.700;2023-09-30T01:07:44;0.40;;;0.40;;
19705;SDS011;10003;52.506;4.700;2023-09-30T01:10:13;0.40;;;0.40;;
19705;SDS011;10003;52.506;4.700;2023-09-30T01:12:42;0.40;;;0.40;;
19705;SDS011;10003;52.506;4.700;2023-09-30T01:15:12;0.40;;;0.40;;
19705;SDS011;10003;52.506;4.700;2023-09-30T01:17:40;0.40;;;0.40;;
19705;SDS011;10003;52.506;4.700;2023-09-30T01:20:09;0.40;;;0.40;;
19705;SDS011;10003;52.506;4.700;2023-09-30T01:22:42;0.40;;;0.40;;
19705;SDS011;10003;52.506;4.700;2023-09-30T01:25:12;0.40;;;0.40;;
19705;SDS011;10003;52.506;4.700;2023-09-30T01:27:40;0.40;;;0.40;;
19705;SDS011;10003;52.506;4.700;2023-09-30T01:30:09;10.00;;;1.13;;
19705;SDS011;10003;52.506;4.700;2023-09-30T01:32:40;0.73;;;0.73;;
19705;SDS011;10003;52.506;4.700;2023-09-30T01:35:09;0.40;;;0.40;;
19705;SDS011;10003;52.506;4.700;2023-09-30T01:37:37;0.30;;;0.30;;
19705;SDS011;10003;52.506;4.700;2023-09-30T01:40:08;0.40;;;0.40;;
19705;SDS011;10003;52.506;4.700;2023-09-30T01:42:38;0.30;;;0.30;;
19705;SDS011;10003;52.506;4.700;2023-09-30T01:45:07;0.30;;;0.30;;
19705;SDS011;10003;52.506;4.700;2023-09-30T01:47:36;0.40;;;0.40;;
19705;SDS011;10003;52.506;4.700;2023-09-30T01:50:05;0.40;;;0.40;;
19705;SDS011;10003;52.506;4.700;2023-09-30T01:52:34;0.40;;;0.40;;
19705;SDS011;10003;52.506;4.700;2023-09-30T01:55:02;0.40;;;0.40;;
19705;SDS011;10003;52.506;4.700;2023-09-30T01:57:32;0.40;;;0.40;;
19705;SDS011;10003;52.506;4.700;2023-09-30T02:00:01;0.40;;;0.40;;
19705;SDS011;10003;52.506;4.700;2023-09-30T02:02:30;0.60;;;0.60;;
19705;SDS011;10003;52.506;4.700;2023-09-30T02:04:59;0.43;;;0.43;;
19705;SDS011;10003;52.506;4.700;2023-09-30T02:07:28;0.67;;;0.67;;
19705;SDS011;10003;52.506;4.700;2023-09-30T02:09:57;0.93;;;0.93;;
19705;SDS011;10003;52.506;4.700;2023-09-30T02:12:26;0.60;;;0.60;;
19705;SDS011;10003;52.506;4.700;2023-09-30T02:14:57;6.87;;;3.07;;
19705;SDS011;10003;52.506;4.700;2023-09-30T02:17:25;2.30;;;1.97;;
19705;SDS011;10003;52.506;4.700;2023-09-30T02:19:54;6.57;;;3.57;;
19705;SDS011;10003;52.506;4.700;2023-09-30T02:22:22;4.83;;;2.80;;
19705;SDS011;10003;52.506;4.700;2023-09-30T02:24:51;14.73;;;1.13;;
19705;SDS011;10003;52.506;4.700;2023-09-30T02:27:21;2.67;;;1.47;;
19705;SDS011;10003;52.506;4.700;2023-09-30T02:29:49;2.90;;;1.37;;
19705;SDS011;10003;52.506;4.700;2023-09-30T02:32:19;0.50;;;0.50;;
19705;SDS011;10003;52.506;4.700;2023-09-30T02:34:49;1.40;;;1.40;;
19705;SDS011;10003;52.506;4.700;2023-09-30T02:37:18;2.70;;;2.00;;
19705;SDS011;10003;52.506;4.700;2023-09-30T02:39:46;7.43;;;3.60;;
19705;SDS011;10003;52.506;4.700;2023-09-30T02:42:15;13.40;;;3.90;;
19705;SDS011;10003;52.506;4.700;2023-09-30T02:44:44;8.43;;;3.67;;
19705;SDS011;10003;52.506;4.700;2023-09-30T02:47:12;16.17;;;3.50;;
19705;SDS011;10003;52.506;4.700;2023-09-30T02:49:42;4.47;;;2.67;;
19705;SDS011;10003;52.506;4.700;2023-09-30T02:52:11;7.97;;;5.33;;
19705;SDS011;10003;52.506;4.700;2023-09-30T02:54:39;6.03;;;4.43;;
19705;SDS011;10003;52.506;4.700;2023-09-30T02:57:08;5.80;;;4.00;;
19705;SDS011;10003;52.506;4.700;2023-09-30T02:59:37;8.40;;;3.77;;
19705;SDS011;10003;52.506;4.700;2023-09-30T03:02:06;8.40;;;4.10;;
19705;SDS011;10003;52.506;4.700;2023-09-30T03:04:35;5.70;;;3.40;;
19705;SDS011;10003;52.506;4.700;2023-09-30T03:07:05;14.13;;;4.43;;
19705;SDS011;10003;52.506;4.700;2023-09-30T03:09:33;9.53;;;5.13;;
19705;SDS011;10003;52.506;4.700;2023-09-30T03:12:02;19.00;;;4.63;;
19705;SDS011;10003;52.506;4.700;2023-09-30T03:14:31;16.07;;;5.20;;
19705;SDS011;10003;52.506;4.700;2023-09-30T03:17:00;8.07;;;4.13;;
19705;SDS011;10003;52.506;4.700;2023-09-30T03:19:30;7.87;;;4.70;;
19705;SDS011;10003;52.506;4.700;2023-09-30T03:21:58;8.70;;;5.17;;
19705;SDS011;10003;52.506;4.700;2023-09-30T03:24:32;8.97;;;4.87;;
19705;SDS011;10003;52.506;4.700;2023-09-30T03:27:01;5.03;;;2.97;;
19705;SDS011;10003;52.506;4.700;2023-09-30T03:29:30;6.33;;;4.07;;
19705;SDS011;10003;52.506;4.700;2023-09-30T03:31:59;9.30;;;3.80;;
19705;SDS011;10003;52.506;4.700;2023-09-30T03:34:27;1.40;;;1.40;;
19705;SDS011;10003;52.506;4.700;2023-09-30T03:36:56;10.47;;;3.97;;
19705;SDS011;10003;52.506;4.700;2023-09-30T03:39:26;6.60;;;3.67;;
19705;SDS011;10003;52.506;4.700;2023-09-30T03:41:56;4.03;;;3.00;;
19705;SDS011;10003;52.506;4.700;2023-09-30T03:44:25;6.33;;;4.43;;
19705;SDS011;10003;52.506;4.700;2023-09-30T03:46:55;6.67;;;4.90;;
19705;SDS011;10003;52.506;4.700;2023-09-30T03:49:25;7.43;;;4.47;;
19705;SDS011;10003;52.506;4.700;2023-09-30T03:51:56;5.53;;;3.83;;
19705;SDS011;10003;52.506;4.700;2023-09-30T03:54:25;3.77;;;3.27;;
19705;SDS011;10003;52.506;4.700;2023-09-30T03:56:53;3.63;;;3.23;;
19705;SDS011;10003;52.506;4.700;2023-09-30T03:59:23;4.53;;;3.73;;
19705;SDS011;10003;52.506;4.700;2023-09-30T04:01:52;11.73;;;5.57;;
19705;SDS011;10003;52.506;4.700;2023-09-30T04:04:21;4.97;;;3.17;;
19705;SDS011;10003;52.506;4.700;2023-09-30T04:06:50;9.83;;;4.60;;
19705;SDS011;10003;52.506;4.700;2023-09-30T04:09:18;3.63;;;2.40;;
19705;SDS011;10003;52.506;4.700;2023-09-30T04:11:47;4.80;;;1.07;;
19705;SDS011;10003;52.506;4.700;2023-09-30T04:14:15;1.70;;;1.60;;
19705;SDS011;10003;52.506;4.700;2023-09-30T04:16:46;9.70;;;5.07;;
19705;SDS011;10003;52.506;4.700;2023-09-30T04:19:15;8.93;;;5.53;;
19705;SDS011;10003;52.506;4.700;2023-09-30T04:21:43;8.03;;;4.93;;
19705;SDS011;10003;52.506;4.700;2023-09-30T04:24:12;11.57;;;6.00;;
19705;SDS011;10003;52.506;4.700;2023-09-30T04:26:40;10.07;;;4.97;;
19705;SDS011;10003;52.506;4.700;2023-09-30T04:29:08;12.43;;;6.37;;
19705;SDS011;10003;52.506;4.700;2023-09-30T04:31:37;14.27;;;6.50;;
19705;SDS011;10003;52.506;4.700;2023-09-30T04:34:09;8.87;;;6.10;;
19705;SDS011;10003;52.506;4.700;2023-09-30T04:36:38;9.47;;;5.17;;
19705;SDS011;10003;52.506;4.700;2023-09-30T04:39:07;9.63;;;3.83;;
19705;SDS011;10003;52.506;4.700;2023-09-30T04:41:37;7.67;;;3.23;;
19705;SDS011;10003;52.506;4.700;2023-09-30T04:44:08;7.53;;;3.57;;
19705;SDS011;10003;52.506;4.700;2023-09-30T04:46:38;8.63;;;4.40;;
19705;SDS011;10003;52.506;4.700;2023-09-30T04:49:07;8.23;;;4.30;;
19705;SDS011;10003;52.506;4.700;2023-09-30T04:51:37;2.63;;;2.37;;
19705;SDS011;10003;52.506;4.700;2023-09-30T04:54:06;3.30;;;2.17;;
19705;SDS011;10003;52.506;4.700;2023-09-30T04:56:34;0.40;;;0.40;;
19705;SDS011;10003;52.506;4.700;2023-09-30T04:59:03;0.77;;;0.77;;
19705;SDS011;10003;52.506;4.700;2023-09-30T05:01:31;8.53;;;2.63;;
19705;SDS011;10003;52.506;4.700;2023-09-30T05:04:00;6.20;;;3.83;;
19705;SDS011;10003;52.506;4.700;2023-09-30T05:06:30;9.73;;;4.30;;
19705;SDS011;10003;52.506;4.700;2023-09-30T05:09:00;12.37;;;6.83;;
19705;SDS011;10003;52.506;4.700;2023-09-30T05:11:29;10.40;;;5.93;;
19705;SDS011;10003;52.506;4.700;2023-09-30T05:13:57;10.87;;;6.50;;
19705;SDS011;10003;52.506;4.700;2023-09-30T05:16:26;11.27;;;5.80;;
19705;SDS011;10003;52.506;4.700;2023-09-30T05:18:56;19.40;;;6.53;;
19705;SDS011;10003;52.506;4.700;2023-09-30T05:21:24;10.80;;;4.70;;
19705;SDS011;10003;52.506;4.700;2023-09-30T05:23:53;7.00;;;4.23;;
19705;SDS011;10003;52.506;4.700;2023-09-30T05:26:24;6.57;;;4.77;;
19705;SDS011;10003;52.506;4.700;2023-09-30T05:28:53;6.33;;;4.37;;
19705;SDS011;10003;52.506;4.700;2023-09-30T05:31:21;11.93;;;5.77;;
19705;SDS011;10003;52.506;4.700;2023-09-30T05:33:50;8.00;;;4.17;;
19705;SDS011;10003;52.506;4.700;2023-09-30T05:36:19;4.23;;;2.47;;
19705;SDS011;10003;52.506;4.700;2023-09-30T05:38:47;7.60;;;4.03;;
19705;SDS011;10003;52.506;4.700;2023-09-30T05:41:16;8.10;;;5.50;;
19705;SDS011;10003;52.506;4.700;2023-09-30T05:43:48;10.20;;;5.13;;
19705;SDS011;10003;52.506;4.700;2023-09-30T05:46:17;3.90;;;3.23;;
19705;SDS011;10003;52.506;4.700;2023-09-30T05:48:45;9.60;;;5.77;;
19705;SDS011;10003;52.506;4.700;2023-09-30T05:51:14;9.30;;;5.27;;
19705;SDS011;10003;52.506;4.700;2023-09-30T05:53:42;7.90;;;5.23;;
19705;SDS011;10003;52.506;4.700;2023-09-30T05:56:11;8.63;;;4.70;;
19705;SDS011;10003;52.506;4.700;2023-09-30T05:58:42;14.20;;;6.40;;
19705;SDS011;10003;52.506;4.700;2023-09-30T06:01:12;7.57;;;4.97;;
19705;SDS011;10003;52.506;4.700;2023-09-30T06:03:40;8.57;;;5.73;;
19705;SDS011;10003;52.506;4.700;2023-09-30T06:06:12;11.40;;;5.03;;
19705;SDS011;10003;52.506;4.700;2023-09-30T06:08:42;11.33;;;5.63;;
19705;SDS011;10003;52.506;4.700;2023-09-30T06:11:15;10.07;;;5.87;;
19705;SDS011;10003;52.506;4.700;2023-09-30T06:13:45;8.70;;;6.43;;
19705;SDS011;10003;52.506;4.700;2023-09-30T06:16:15;10.97;;;5.97;;
19705;SDS011;10003;52.506;4.700;2023-09-30T06:18:44;16.67;;;6.70;;
19705;SDS011;10003;52.506;4.700;2023-09-30T06:21:13;9.83;;;5.93;;
19705;SDS011;10003;52.506;4.700;2023-09-30T06:23:44;8.03;;;4.37;;
19705;SDS011;10003;52.506;4.700;2023-09-30T06:26:13;11.57;;;6.00;;
19705;SDS011;10003;52.506;4.700;2023-09-30T06:28:41;10.67;;;5.37;;
19705;SDS011;10003;52.506;4.700;2023-09-30T06:31:11;10.17;;;5.33;;
19705;SDS011;10003;52.506;4.700;2023-09-30T06:33:41;11.40;;;6.30;;
19705;SDS011;10003;52.506;4.700;2023-09-30T06:36:10;6.57;;;3.67;;
19705;SDS011;10003;52.506;4.700;2023-09-30T06:38:40;19.20;;;7.07;;
19705;SDS011;10003;52.506;4.700;2023-09-30T06:41:14;5.80;;;3.73;;
19705;SDS011;10003;52.506;4.700;2023-09-30T06:43:43;6.50;;;2.93;;
19705;SDS011;10003;52.506;4.700;2023-09-30T06:46:13;7.00;;;5.23;;
19705;SDS011;10003;52.506;4.700;2023-09-30T06:48:43;8.87;;;4.90;;
19705;SDS011;10003;52.506;4.700;2023-09-30T06:51:15;4.23;;;3.07;;
19705;SDS011;10003;52.506;4.700;2023-09-30T06:53:43;13.43;;;4.67;;
19705;SDS011;10003;52.506;4.700;2023-09-30T06:56:13;3.27;;;3.00;;
19705;SDS011;10003;52.506;4.700;2023-09-30T06:58:42;8.03;;;5.07;;
19705;SDS011;10003;52.506;4.700;2023-09-30T07:01:14;9.07;;;6.00;;
19705;SDS011;10003;52.506;4.700;2023-09-30T07:03:44;10.90;;;5.83;;
19705;SDS011;10003;52.506;4.700;2023-09-30T07:06:15;9.60;;;6.03;;
19705;SDS011;10003;52.506;4.700;2023-09-30T07:08:49;10.23;;;5.00;;
19705;SDS011;10003;52.506;4.700;2023-09-30T07:11:26;9.60;;;5.40;;
19705;SDS011;10003;52.506;4.700;2023-09-30T07:13:55;6.40;;;4.00;;
19705;SDS011;10003;52.506;4.700;2023-09-30T07:16:24;5.87;;;3.13;;
19705;SDS011;10003;52.506;4.700;2023-09-30T07:18:54;5.33;;;3.87;;
19705;SDS011;10003;52.506;4.700;2023-09-30T07:21:23;7.50;;;3.97;;
19705;SDS011;10003;52.506;4.700;2023-09-30T07:23:51;8.93;;;4.20;;
19705;SDS011;10003;52.506;4.700;2023-09-30T07:26:23;8.50;;;4.47;;
19705;SDS011;10003;52.506;4.700;2023-09-30T07:28:51;5.60;;;3.33;;
19705;SDS011;10003;52.506;4.700;2023-09-30T07:31:21;7.47;;;4.93;;
19705;SDS011;10003;52.506;4.700;2023-09-30T07:33:50;10.10;;;6.00;;
19705;SDS011;10003;52.506;4.700;2023-09-30T07:36:20;10.53;;;3.90;;
19705;SDS011;10003;52.506;4.700;2023-09-30T07:38:49;3.87;;;3.33;;
19705;SDS011;10003;52.506;4.700;2023-09-30T07:41:19;9.27;;;4.00;;
19705;SDS011;10003;52.506;4.700;2023-09-30T07:43:47;6.23;;;3.03;;
19705;SDS011;10003;52.506;4.700;2023-09-30T07:46:16;6.87;;;3.10;;
19705;SDS011;10003;52.506;4.700;2023-09-30T07:48:45;6.27;;;3.03;;
19705;SDS011;10003;52.506;4.700;2023-09-30T07:51:13;2.07;;;1.70;;
19705;SDS011;10003;52.506;4.700;2023-09-30T07:53:43;5.93;;;3.67;;
19705;SDS011;10003;52.506;4.700;2023-09-30T07:56:13;1.10;;;1.03;;
19705;SDS011;10003;52.506;4.700;2023-09-30T07:58:41;6.33;;;2.27;;
19705;SDS011;10003;52.506;4.700;2023-09-30T08:01:09;5.70;;;3.53;;
19705;SDS011;10003;52.506;4.700;2023-09-30T08:03:38;2.27;;;2.07;;
19705;SDS011;10003;52.506;4.700;2023-09-30T08:06:07;1.23;;;1.23;;
19705;SDS011;10003;52.506;4.700;2023-09-30T08:08:36;1.20;;;1.20;;
19705;SDS011;10003;52.506;4.700;2023-09-30T08:11:06;9.37;;;3.30;;
19705;SDS011;10003;52.506;4.700;2023-09-30T08:13:35;0.80;;;0.80;;
19705;SDS011;10003;52.506;4.700;2023-09-30T08:16:04;0.30;;;0.30;;
19705;SDS011;10003;52.506;4.700;2023-09-30T08:18:33;0.30;;;0.30;;
19705;SDS011;10003;52.506;4.700;2023-09-30T08:21:02;3.90;;;1.73;;
19705;SDS011;10003;52.506;4.700;2023-09-30T08:23:31;3.70;;;1.63;;
19705;SDS011;10003;52.506;4.700;2023-09-30T08:25:59;2.13;;;1.70;;
19705;SDS011;10003;52.506;4.700;2023-09-30T08:28:29;0.67;;;0.67;;
19705;SDS011;10003;52.506;4.700;2023-09-30T08:31:01;0.83;;;0.83;;
19705;SDS011;10003;52.506;4.700;2023-09-30T08:33:31;11.97;;;2.40;;
19705;SDS011;10003;52.506;4.700;2023-09-30T08:36:01;0.23;;;0.23;;
19705;SDS011;10003;52.506;4.700;2023-09-30T08:38:33;1.50;;;1.40;;
19705;SDS011;10003;52.506;4.700;2023-09-30T08:41:02;0.30;;;0.30;;
19705;SDS011;10003;52.506;4.700;2023-09-30T08:43:32;0.40;;;0.40;;
19705;SDS011;10003;52.506;4.700;2023-09-30T08:46:05;0.30;;;0.30;;
19705;SDS011;10003;52.506;4.700;2023-09-30T08:48:34;0.37;;;0.37;;
19705;SDS011;10003;52.506;4.700;2023-09-30T08:51:03;1.60;;;1.50;;
19705;SDS011;10003;52.506;4.700;2023-09-30T08:53:31;1.37;;;1.07;;
19705;SDS011;10003;52.506;4.700;2023-09-30T08:56:00;4.73;;;1.40;;
19705;SDS011;10003;52.506;4.700;2023-09-30T08:58:35;0.20;;;0.20;;
19705;SDS011;10003;52.506;4.700;2023-09-30T09:01:04;2.00;;;0.50;;
19705;SDS011;10003;52.506;4.700;2023-09-30T09:03:36;4.00;;;1.37;;
19705;SDS011;10003;52.506;4.700;2023-09-30T09:06:05;0.40;;;0.40;;
19705;SDS011;10003;52.506;4.700;2023-09-30T09:08:34;1.20;;;1.03;;
19705;SDS011;10003;52.506;4.700;2023-09-30T09:11:02;1.17;;;0.90;;
19705;SDS011;10003;52.506;4.700;2023-09-30T09:13:44;0.37;;;0.37;;
19705;SDS011;10003;52.506;4.700;2023-09-30T09:16:16;0.43;;;0.43;;
19705;SDS011;10003;52.506;4.700;2023-09-30T09:18:46;0.50;;;0.50;;
19705;SDS011;10003;52.506;4.700;2023-09-30T09:21:14;0.67;;;0.67;;
19705;SDS011;10003;52.506;4.700;2023-09-30T09:23:44;0.30;;;0.30;;
19705;SDS011;10003;52.506;4.700;2023-09-30T09:28:46;1.20;;;0.87;;
19705;SDS011;10003;52.506;4.700;2023-09-30T09:31:21;2.37;;;0.87;;
19705;SDS011;10003;52.506;4.700;2023-09-30T09:33:50;1.97;;;1.30;;
19705;SDS011;10003;52.506;4.700;2023-09-30T09:36:19;0.87;;;0.80;;
19705;SDS011;10003;52.506;4.700;2023-09-30T09:38:48;3.23;;;1.03;;
19705;SDS011;10003;52.506;4.700;2023-09-30T09:41:20;2.80;;;2.10;;
19705;SDS011;10003;52.506;4.700;2023-09-30T09:43:50;0.80;;;0.60;;
19705;SDS011;10003;52.506;4.700;2023-09-30T09:46:18;3.80;;;1.90;;
19705;SDS011;10003;52.506;4.700;2023-09-30T09:48:46;0.23;;;0.23;;
19705;SDS011;10003;52.506;4.700;2023-09-30T09:51:15;3.53;;;1.33;;
19705;SDS011;10003;52.506;4.700;2023-09-30T09:53:44;1.83;;;0.87;;
19705;SDS011;10003;52.506;4.700;2023-09-30T09:56:14;0.53;;;0.50;;
19705;SDS011;10003;52.506;4.700;2023-09-30T09:58:43;3.90;;;1.70;;
19705;SDS011;10003;52.506;4.700;2023-09-30T10:01:14;5.30;;;1.97;;
19705;SDS011;10003;52.506;4.700;2023-09-30T10:03:43;2.47;;;0.97;;
19705;SDS011;10003;52.506;4.700;2023-09-30T10:06:14;2.10;;;1.30;;
19705;SDS011;10003;52.506;4.700;2023-09-30T10:08:44;1.47;;;0.90;;
19705;SDS011;10003;52.506;4.700;2023-09-30T10:11:16;0.80;;;0.80;;
19705;SDS011;10003;52.506;4.700;2023-09-30T10:13:49;0.33;;;0.33;;
19705;SDS011;10003;52.506;4.700;2023-09-30T10:19:10;1.20;;;0.50;;
19705;SDS011;10003;52.506;4.700;2023-09-30T10:21:38;0.83;;;0.83;;
19705;SDS011;10003;52.506;4.700;2023-09-30T10:29:47;0.40;;;0.40;;
19705;SDS011;10003;52.506;4.700;2023-09-30T10:32:15;3.20;;;0.50;;
19705;SDS011;10003;52.506;4.700;2023-09-30T10:34:48;1.40;;;0.97;;
19705;SDS011;10003;52.506;4.700;2023-09-30T10:37:22;11.87;;;1.00;;
19705;SDS011;10003;52.506;4.700;2023-09-30T10:39:54;1.93;;;1.37;;
19705;SDS011;10003;52.506;4.700;2023-09-30T10:47:54;1.33;;;1.27;;
19705;SDS011;10003;52.506;4.700;2023-09-30T10:53:10;3.70;;;0.70;;
19705;SDS011;10003;52.506;4.700;2023-09-30T10:55:38;1.10;;;1.07;;
19705;SDS011;10003;52.506;4.700;2023-09-30T10:58:08;1.07;;;1.07;;
19705;SDS011;10003;52.506;4.700;2023-09-30T11:00:37;3.83;;;1.10;;
19705;SDS011;10003;52.506;4.700;2023-09-30T11:03:07;6.47;;;1.77;;
19705;SDS011;10003;52.506;4.700;2023-09-30T11:05:39;1.20;;;1.20;;
19705;SDS011;10003;52.506;4.700;2023-09-30T11:08:14;2.10;;;0.67;;
19705;SDS011;10003;52.506;4.700;2023-09-30T11:10:47;5.63;;;1.23;;
19705;SDS011;10003;52.506;4.700;2023-09-30T11:13:17;2.03;;;0.77;;
19705;SDS011;10003;52.506;4.700;2023-09-30T11:15:46;0.47;;;0.47;;
19705;SDS011;10003;52.506;4.700;2023-09-30T11:18:15;0.30;;;0.30;;
19705;SDS011;10003;52.506;4.700;2023-09-30T11:20:44;4.87;;;2.13;;
19705;SDS011;10003;52.506;4.700;2023-09-30T11:23:15;0.93;;;0.87;;
19705;SDS011;10003;52.506;4.700;2023-09-30T11:25:43;2.23;;;0.47;;
19705;SDS011;10003;52.506;4.700;2023-09-30T11:28:13;1.30;;;1.20;;
19705;SDS011;10003;52.506;4.700;2023-09-30T11:30:54;0.63;;;0.60;;
19705;SDS011;10003;52.506;4.700;2023-09-30T11:33:23;0.47;;;0.40;;
19705;SDS011;10003;52.506;4.700;2023-09-30T11:36:01;0.50;;;0.50;;
19705;SDS011;10003;52.506;4.700;2023-09-30T11:38:32;2.27;;;0.90;;
19705;SDS011;10003;52.506;4.700;2023-09-30T11:41:01;0.90;;;0.90;;
19705;SDS011;10003;52.506;4.700;2023-09-30T11:43:30;0.30;;;0.30;;
19705;SDS011;10003;52.506;4.700;2023-09-30T11:46:06;1.03;;;0.80;;
19705;SDS011;10003;52.506;4.700;2023-09-30T11:48:35;2.43;;;1.57;;
19705;SDS011;10003;52.506;4.700;2023-09-30T11:51:04;1.10;;;0.30;;
19705;SDS011;10003;52.506;4.700;2023-09-30T11:53:34;5.17;;;1.23;;
19705;SDS011;10003;52.506;4.700;2023-09-30T11:56:03;0.37;;;0.37;;
19705;SDS011;10003;52.506;4.700;2023-09-30T11:58:35;3.03;;;2.33;;
19705;SDS011;10003;52.506;4.700;2023-09-30T12:01:05;0.47;;;0.47;;
19705;SDS011;10003;52.506;4.700;2023-09-30T12:03:38;6.60;;;1.83;;
19705;SDS011;10003;52.506;4.700;2023-09-30T12:06:07;8.03;;;1.97;;
19705;SDS011;10003;52.506;4.700;2023-09-30T12:08:41;4.70;;;1.07;;
19705;SDS011;10003;52.506;4.700;2023-09-30T12:11:09;0.60;;;0.47;;
19705;SDS011;10003;52.506;4.700;2023-09-30T12:13:42;1.20;;;0.83;;
19705;SDS011;10003;52.506;4.700;2023-09-30T12:16:11;1.23;;;0.90;;
19705;SDS011;10003;52.506;4.700;2023-09-30T12:18:40;0.80;;;0.67;;
19705;SDS011;10003;52.506;4.700;2023-09-30T12:21:09;2.60;;;1.13;;
19705;SDS011;10003;52.506;4.700;2023-09-30T12:23:38;0.63;;;0.63;;
19705;SDS011;10003;52.506;4.700;2023-09-30T12:26:08;1.13;;;0.87;;
19705;SDS011;10003;52.506;4.700;2023-09-30T12:28:42;0.97;;;0.50;;
19705;SDS011;10003;52.506;4.700;2023-09-30T12:31:10;6.90;;;2.07;;
19705;SDS011;10003;52.506;4.700;2023-09-30T12:33:40;1.20;;;1.20;;
19705;SDS011;10003;52.506;4.700;2023-09-30T12:36:08;0.50;;;0.50;;
19705;SDS011;10003;52.506;4.700;2023-09-30T12:38:39;1.70;;;1.37;;
19705;SDS011;10003;52.506;4.700;2023-09-30T12:41:09;5.90;;;1.70;;
19705;SDS011;10003;52.506;4.700;2023-09-30T12:43:38;2.23;;;1.83;;
19705;SDS011;10003;52.506;4.700;2023-09-30T12:46:08;4.17;;;0.73;;
19705;SDS011;10003;52.506;4.700;2023-09-30T12:48:39;5.77;;;1.53;;
19705;SDS011;10003;52.506;4.700;2023-09-30T12:51:08;8.17;;;1.00;;
19705;SDS011;10003;52.506;4.700;2023-09-30T12:53:36;2.20;;;0.80;;
19705;SDS011;10003;52.506;4.700;2023-09-30T12:56:05;1.37;;;1.00;;
19705;SDS011;10003;52.506;4.700;2023-09-30T12:58:35;4.77;;;1.60;;
19705;SDS011;10003;52.506;4.700;2023-09-30T13:01:04;2.30;;;1.30;;
19705;SDS011;10003;52.506;4.700;2023-09-30T13:03:48;3.70;;;1.63;;
19705;SDS011;10003;52.506;4.700;2023-09-30T13:06:18;3.60;;;2.03;;
19705;SDS011;10003;52.506;4.700;2023-09-30T13:08:47;1.27;;;0.60;;
19705;SDS011;10003;52.506;4.700;2023-09-30T13:11:15;9.10;;;2.53;;
19705;SDS011;10003;52.506;4.700;2023-09-30T13:13:45;3.80;;;1.27;;
19705;SDS011;10003;52.506;4.700;2023-09-30T13:16:14;1.07;;;1.00;;
19705;SDS011;10003;52.506;4.700;2023-09-30T13:18:43;8.37;;;2.17;;
19705;SDS011;10003;52.506;4.700;2023-09-30T13:21:14;3.70;;;1.87;;
19705;SDS011;10003;52.506;4.700;2023-09-30T13:23:43;0.87;;;0.80;;
19705;SDS011;10003;52.506;4.700;2023-09-30T13:26:11;3.53;;;1.73;;
19705;SDS011;10003;52.506;4.700;2023-09-30T13:28:40;5.63;;;1.47;;
19705;SDS011;10003;52.506;4.700;2023-09-30T13:31:10;0.50;;;0.50;;
19705;SDS011;10003;52.506;4.700;2023-09-30T13:33:38;0.50;;;0.50;;
19705;SDS011;10003;52.506;4.700;2023-09-30T13:36:07;0.50;;;0.50;;
19705;SDS011;10003;52.506;4.700;2023-09-30T13:38:36;2.70;;;2.20;;
19705;SDS011;10003;52.506;4.700;2023-09-30T13:41:05;5.77;;;2.80;;
19705;SDS011;10003;52.506;4.700;2023-09-30T13:43:33;1.30;;;1.20;;
19705;SDS011;10003;52.506;4.700;2023-09-30T13:46:03;3.30;;;1.70;;
19705;SDS011;10003;52.506;4.700;2023-09-30T13:48:35;0.57;;;0.57;;
19705;SDS011;10003;52.506;4.700;2023-09-30T13:51:04;8.70;;;1.13;;
19705;SDS011;10003;52.506;4.700;2023-09-30T13:53:33;0.93;;;0.77;;
19705;SDS011;10003;52.506;4.700;2023-09-30T13:56:01;3.50;;;1.47;;
19705;SDS011;10003;52.506;4.700;2023-09-30T13:58:31;7.30;;;1.70;;
19705;SDS011;10003;52.506;4.700;2023-09-30T14:00:59;5.20;;;1.37;;
19705;SDS011;10003;52.506;4.700;2023-09-30T14:03:28;5.10;;;1.80;;
19705;SDS011;10003;52.506;4.700;2023-09-30T14:05:58;1.27;;;0.90;;
19705;SDS011;10003;52.506;4.700;2023-09-30T14:08:27;0.63;;;0.63;;
19705;SDS011;10003;52.506;4.700;2023-09-30T14:10:57;4.50;;;1.03;;
19705;SDS011;10003;52.506;4.700;2023-09-30T14:13:25;4.77;;;1.23;;
19705;SDS011;10003;52.506;4.700;2023-09-30T14:15:54;1.80;;;1.70;;
19705;SDS011;10003;52.506;4.700;2023-09-30T14:18:24;3.60;;;2.03;;
19705;SDS011;10003;52.506;4.700;2023-09-30T14:20:52;2.03;;;0.80;;
19705;SDS011;10003;52.506;4.700;2023-09-30T14:23:22;2.67;;;2.23;;
19705;SDS011;10003;52.506;4.700;2023-09-30T14:25:54;3.30;;;1.13;;
19705;SDS011;10003;52.506;4.700;2023-09-30T14:28:23;3.33;;;1.37;;
19705;SDS011;10003;52.506;4.700;2023-09-30T14:30:51;5.73;;;1.80;;
19705;SDS011;10003;52.506;4.700;2023-09-30T14:33:20;0.60;;;0.60;;
19705;SDS011;10003;52.506;4.700;2023-09-30T14:35:48;1.17;;;1.07;;
19705;SDS011;10003;52.506;4.700;2023-09-30T14:38:17;1.17;;;1.07;;
19705;SDS011;10003;52.506;4.700;2023-09-30T14:40:47;2.23;;;1.37;;
19705;SDS011;10003;52.506;4.700;2023-09-30T14:43:17;1.50;;;1.33;;
19705;SDS011;10003;52.506;4.700;2023-09-30T14:45:45;3.73;;;1.67;;
19705;SDS011;10003;52.506;4.700;2023-09-30T14:48:14;3.10;;;1.23;;
19705;SDS011;10003;52.506;4.700;2023-09-30T14:50:51;0.50;;;0.50;;
19705;SDS011;10003;52.506;4.700;2023-09-30T14:53:19;0.53;;;0.47;;
19705;SDS011;10003;52.506;4.700;2023-09-30T14:55:49;6.17;;;2.00;;
19705;SDS011;10003;52.506;4.700;2023-09-30T14:58:18;1.60;;;0.60;;
19705;SDS011;10003;52.506;4.700;2023-09-30T15:00:46;4.80;;;2.30;;
19705;SDS011;10003;52.506;4.700;2023-09-30T15:03:15;2.37;;;0.70;;
19705;SDS011;10003;52.506;4.700;2023-09-30T15:05:44;1.27;;;0.63;;
19705;SDS011;10003;52.506;4.700;2023-09-30T15:08:12;11.77;;;1.53;;
19705;SDS011;10003;52.506;4.700;2023-09-30T15:10:40;2.67;;;0.67;;
19705;SDS011;10003;52.506;4.700;2023-09-30T15:13:11;0.67;;;0.67;;
19705;SDS011;10003;52.506;4.700;2023-09-30T15:15:40;7.07;;;1.70;;
19705;SDS011;10003;52.506;4.700;2023-09-30T15:18:08;1.90;;;0.97;;